sensor_id;sensor_type;location;lat;lon;timestamp;temperature;humidity
26521;DHT22;14192;0.00000000;0.00000000;2023-05-07T00:01:34;23.10;70.10
26521;DHT22;14192;0.00000000;0.00000000;2023-05-07T00:04:01;23.10;70.00
26521;DHT22;14192;0.00000000;0.00000000;2023-05-07T00:06:28;23.10;70.20
26521;DHT22;14192;0.00000000;0.00000000;2023-05-07T00:08:57;23.00;70.00
26521;DHT22;14192;0.00000000;0.00000000;2023-05-07T00:11:25;23.00;70.10
26521;DHT22;14192;0.00000000;0.00000000;2023-05-07T00:13:52;23.00;70.10
26521;DHT22;14192;0.00000000;0.00000000;2023-05-07T00:16:19;23.00;70.00
26521;DHT22;14192;0.00000000;0.00000000;2023-05-07T00:18:46;23.00;70.10
26521;DHT22;14192;0.00000000;0.00000000;2023-05-07T00:21:13;23.00;70.10
26521;DHT22;14192;0.00000000;0.00000000;2023-05-07T00:23:40;22.90;69.80
26521;DHT22;14192;0.00000000;0.00000000;2023-05-07T00:26:08;23.00;69.80
26521;DHT22;14192;0.00000000;0.00000000;2023-05-07T00:28:35;23.00;70.50
26521;DHT22;14192;0.00000000;0.00000000;2023-05-07T00:31:01;22.90;69.70
26521;DHT22;14192;0.00000000;0.00000000;2023-05-07T00:35:57;22.90;69.70
26521;DHT22;14192;0.00000000;0.00000000;2023-05-07T00:38:26;22.90;69.70
26521;DHT22;14192;0.00000000;0.00000000;2023-05-07T00:40:53;22.90;69.70
26521;DHT22;14192;0.00000000;0.00000000;2023-05-07T00:43:21;22.90;69.70
26521;DHT22;14192;0.00000000;0.00000000;2023-05-07T00:45:48;22.90;69.50
26521;DHT22;14192;0.00000000;0.00000000;2023-05-07T00:48:15;22.80;69.40
26521;DHT22;14192;0.00000000;0.00000000;2023-05-07T00:50:42;22.80;69.50
26521;DHT22;14192;0.00000000;0.00000000;2023-05-07T00:53:09;22.80;69.50
26521;DHT22;14192;0.00000000;0.00000000;2023-05-07T00:55:36;22.80;69.40
26521;DHT22;14192;0.00000000;0.00000000;2023-05-07T00:58:03;22.70;69.30
26521;DHT22;14192;0.00000000;0.00000000;2023-05-07T01:00:33;22.70;69.30
26521;DHT22;14192;0.00000000;0.00000000;2023-05-07T01:03:01;22.70;69.30
26521;DHT22;14192;0.00000000;0.00000000;2023-05-07T01:05:28;22.70;69.30
26521;DHT22;14192;0.00000000;0.00000000;2023-05-07T01:07:56;22.70;70.00
26521;DHT22;14192;0.00000000;0.00000000;2023-05-07T01:10:24;22.60;69.20
26521;DHT22;14192;0.00000000;0.00000000;2023-05-07T01:12:51;22.60;69.20
26521;DHT22;14192;0.00000000;0.00000000;2023-05-07T01:15:19;22.60;69.20
26521;DHT22;14192;0.00000000;0.00000000;2023-05-07T01:17:47;22.60;69.30
26521;DHT22;14192;0.00000000;0.00000000;2023-05-07T01:20:14;22.60;69.30
26521;DHT22;14192;0.00000000;0.00000000;2023-05-07T01:22:43;22.60;69.20
26521;DHT22;14192;0.00000000;0.00000000;2023-05-07T01:25:10;22.50;69.20
26521;DHT22;14192;0.00000000;0.00000000;2023-05-07T01:27:37;22.50;69.10
26521;DHT22;14192;0.00000000;0.00000000;2023-05-07T01:30:04;22.50;69.20
26521;DHT22;14192;0.00000000;0.00000000;2023-05-07T01:32:35;22.50;69.20
26521;DHT22;14192;0.00000000;0.00000000;2023-05-07T01:35:07;22.50;69.10
26521;DHT22;14192;0.00000000;0.00000000;2023-05-07T01:37:36;22.50;69.10
26521;DHT22;14192;0.00000000;0.00000000;2023-05-07T01:40:06;22.50;69.20
26521;DHT22;14192;0.00000000;0.00000000;2023-05-07T01:42:33;22.40;69.10
26521;DHT22;14192;0.00000000;0.00000000;2023-05-07T01:45:00;22.40;69.10
26521;DHT22;14192;0.00000000;0.00000000;2023-05-07T01:47:27;22.40;69.10
26521;DHT22;14192;0.00000000;0.00000000;2023-05-07T01:49:55;22.40;69.10
26521;DHT22;14192;0.00000000;0.00000000;2023-05-07T01:52:22;22.40;69.20
26521;DHT22;14192;0.00000000;0.00000000;2023-05-07T01:54:50;22.30;69.10
26521;DHT22;14192;0.00000000;0.00000000;2023-05-07T01:57:18;22.40;69.20
26521;DHT22;14192;0.00000000;0.00000000;2023-05-07T01:59:45;22.30;69.20
26521;DHT22;14192;0.00000000;0.00000000;2023-05-07T02:02:12;22.30;69.20
26521;DHT22;14192;0.00000000;0.00000000;2023-05-07T02:04:39;22.30;69.10
26521;DHT22;14192;0.00000000;0.00000000;2023-05-07T02:07:06;22.30;69.20
26521;DHT22;14192;0.00000000;0.00000000;2023-05-07T02:09:32;22.30;69.20
26521;DHT22;14192;0.00000000;0.00000000;2023-05-07T02:11:59;22.30;69.20
26521;DHT22;14192;0.00000000;0.00000000;2023-05-07T02:14:28;22.20;69.10
26521;DHT22;14192;0.00000000;0.00000000;2023-05-07T02:16:55;22.20;69.10
26521;DHT22;14192;0.00000000;0.00000000;2023-05-07T02:19:21;22.20;69.20
26521;DHT22;14192;0.00000000;0.00000000;2023-05-07T02:21:48;22.20;69.30
26521;DHT22;14192;0.00000000;0.00000000;2023-05-07T02:24:16;22.20;69.20
26521;DHT22;14192;0.00000000;0.00000000;2023-05-07T02:26:43;22.20;69.30
26521;DHT22;14192;0.00000000;0.00000000;2023-05-07T02:29:10;22.20;69.20
26521;DHT22;14192;0.00000000;0.00000000;2023-05-07T02:31:38;22.10;69.10
26521;DHT22;14192;0.00000000;0.00000000;2023-05-07T02:34:05;22.10;69.20
26521;DHT22;14192;0.00000000;0.00000000;2023-05-07T02:36:31;22.10;69.30
26521;DHT22;14192;0.00000000;0.00000000;2023-05-07T02:38:58;22.10;69.20
26521;DHT22;14192;0.00000000;0.00000000;2023-05-07T02:41:25;22.10;69.30
26521;DHT22;14192;0.00000000;0.00000000;2023-05-07T02:43:53;22.10;69.40
26521;DHT22;14192;0.00000000;0.00000000;2023-05-07T02:46:20;22.00;69.30
26521;DHT22;14192;0.00000000;0.00000000;2023-05-07T02:48:48;22.10;69.30
26521;DHT22;14192;0.00000000;0.00000000;2023-05-07T02:51:19;22.00;69.20
26521;DHT22;14192;0.00000000;0.00000000;2023-05-07T02:53:46;22.00;69.20
26521;DHT22;14192;0.00000000;0.00000000;2023-05-07T02:56:13;22.00;69.20
26521;DHT22;14192;0.00000000;0.00000000;2023-05-07T02:58:40;22.00;69.20
26521;DHT22;14192;0.00000000;0.00000000;2023-05-07T03:01:07;22.00;69.10
26521;DHT22;14192;0.00000000;0.00000000;2023-05-07T03:03:34;22.00;69.10
26521;DHT22;14192;0.00000000;0.00000000;2023-05-07T03:06:03;22.00;69.00
26521;DHT22;14192;0.00000000;0.00000000;2023-05-07T03:08:30;22.00;69.10
26521;DHT22;14192;0.00000000;0.00000000;2023-05-07T03:10:57;22.00;69.00
26521;DHT22;14192;0.00000000;0.00000000;2023-05-07T03:13:23;21.90;68.90
26521;DHT22;14192;0.00000000;0.00000000;2023-05-07T03:15:51;21.90;68.90
26521;DHT22;14192;0.00000000;0.00000000;2023-05-07T03:18:17;21.90;68.90
26521;DHT22;14192;0.00000000;0.00000000;2023-05-07T03:20:44;21.90;68.90
26521;DHT22;14192;0.00000000;0.00000000;2023-05-07T03:23:12;21.90;68.90
26521;DHT22;14192;0.00000000;0.00000000;2023-05-07T03:25:39;21.90;68.80
26521;DHT22;14192;0.00000000;0.00000000;2023-05-07T03:28:06;21.90;68.90
26521;DHT22;14192;0.00000000;0.00000000;2023-05-07T03:30:33;21.90;68.80
26521;DHT22;14192;0.00000000;0.00000000;2023-05-07T03:33:00;21.90;68.80
26521;DHT22;14192;0.00000000;0.00000000;2023-05-07T03:35:26;21.80;68.70
26521;DHT22;14192;0.00000000;0.00000000;2023-05-07T03:37:53;21.80;68.70
26521;DHT22;14192;0.00000000;0.00000000;2023-05-07T03:40:21;21.80;68.70
26521;DHT22;14192;0.00000000;0.00000000;2023-05-07T03:42:48;21.80;68.60
26521;DHT22;14192;0.00000000;0.00000000;2023-05-07T03:45:15;21.80;68.60
26521;DHT22;14192;0.00000000;0.00000000;2023-05-07T03:47:42;21.80;68.70
26521;DHT22;14192;0.00000000;0.00000000;2023-05-07T03:50:09;21.80;68.60
26521;DHT22;14192;0.00000000;0.00000000;2023-05-07T03:52:36;21.80;68.60
26521;DHT22;14192;0.00000000;0.00000000;2023-05-07T03:55:04;21.80;68.60
26521;DHT22;14192;0.00000000;0.00000000;2023-05-07T03:57:32;21.70;68.40
26521;DHT22;14192;0.00000000;0.00000000;2023-05-07T03:59:59;21.70;68.50
26521;DHT22;14192;0.00000000;0.00000000;2023-05-07T04:02:26;21.70;68.50
26521;DHT22;14192;0.00000000;0.00000000;2023-05-07T04:04:53;21.70;68.50
26521;DHT22;14192;0.00000000;0.00000000;2023-05-07T04:07:20;21.70;68.50
26521;DHT22;14192;0.00000000;0.00000000;2023-05-07T04:09:46;21.70;68.50
26521;DHT22;14192;0.00000000;0.00000000;2023-05-07T04:12:14;21.70;68.60
26521;DHT22;14192;0.00000000;0.00000000;2023-05-07T04:14:43;21.70;68.60
26521;DHT22;14192;0.00000000;0.00000000;2023-05-07T04:17:09;21.60;68.50
26521;DHT22;14192;0.00000000;0.00000000;2023-05-07T04:19:36;21.60;68.50
26521;DHT22;14192;0.00000000;0.00000000;2023-05-07T04:22:03;21.60;68.60
26521;DHT22;14192;0.00000000;0.00000000;2023-05-07T04:24:31;21.60;68.60
26521;DHT22;14192;0.00000000;0.00000000;2023-05-07T04:26:59;21.50;68.50
26521;DHT22;14192;0.00000000;0.00000000;2023-05-07T04:29:25;20.70;68.00
26521;DHT22;14192;0.00000000;0.00000000;2023-05-07T04:31:54;21.50;68.50
26521;DHT22;14192;0.00000000;0.00000000;2023-05-07T04:34:21;21.50;68.60
26521;DHT22;14192;0.00000000;0.00000000;2023-05-07T04:36:48;21.50;68.50
26521;DHT22;14192;0.00000000;0.00000000;2023-05-07T04:39:15;21.50;69.30
26521;DHT22;14192;0.00000000;0.00000000;2023-05-07T04:41:42;21.50;68.60
26521;DHT22;14192;0.00000000;0.00000000;2023-05-07T04:44:09;21.50;68.60
26521;DHT22;14192;0.00000000;0.00000000;2023-05-07T04:46:36;21.40;68.50
26521;DHT22;14192;0.00000000;0.00000000;2023-05-07T04:49:04;21.50;68.60
26521;DHT22;14192;0.00000000;0.00000000;2023-05-07T04:51:31;21.40;68.60
26521;DHT22;14192;0.00000000;0.00000000;2023-05-07T04:53:58;21.40;68.60
26521;DHT22;14192;0.00000000;0.00000000;2023-05-07T04:56:27;21.40;68.60
26521;DHT22;14192;0.00000000;0.00000000;2023-05-07T04:58:55;21.40;68.70
26521;DHT22;14192;0.00000000;0.00000000;2023-05-07T05:01:22;21.40;68.70
26521;DHT22;14192;0.00000000;0.00000000;2023-05-07T05:03:48;21.40;68.70
26521;DHT22;14192;0.00000000;0.00000000;2023-05-07T05:06:16;21.40;68.70
26521;DHT22;14192;0.00000000;0.00000000;2023-05-07T05:08:43;21.30;68.70
26521;DHT22;14192;0.00000000;0.00000000;2023-05-07T05:11:10;21.40;68.80
26521;DHT22;14192;0.00000000;0.00000000;2023-05-07T05:13:37;21.40;68.80
26521;DHT22;14192;0.00000000;0.00000000;2023-05-07T05:16:05;21.40;68.90
26521;DHT22;14192;0.00000000;0.00000000;2023-05-07T05:18:32;21.30;68.80
26521;DHT22;14192;0.00000000;0.00000000;2023-05-07T05:20:59;21.30;68.80
26521;DHT22;14192;0.00000000;0.00000000;2023-05-07T05:23:27;21.30;68.90
26521;DHT22;14192;0.00000000;0.00000000;2023-05-07T05:25:55;21.30;68.80
26521;DHT22;14192;0.00000000;0.00000000;2023-05-07T05:28:22;21.30;68.90
26521;DHT22;14192;0.00000000;0.00000000;2023-05-07T05:30:49;21.30;68.90
26521;DHT22;14192;0.00000000;0.00000000;2023-05-07T05:33:16;21.30;68.90
26521;DHT22;14192;0.00000000;0.00000000;2023-05-07T05:35:43;21.30;69.00
26521;DHT22;14192;0.00000000;0.00000000;2023-05-07T05:38:10;21.30;68.90
26521;DHT22;14192;0.00000000;0.00000000;2023-05-07T05:40:38;21.30;69.00
26521;DHT22;14192;0.00000000;0.00000000;2023-05-07T05:43:06;21.30;69.00
26521;DHT22;14192;0.00000000;0.00000000;2023-05-07T05:45:32;21.30;69.10
26521;DHT22;14192;0.00000000;0.00000000;2023-05-07T05:47:59;21.30;69.10
26521;DHT22;14192;0.00000000;0.00000000;2023-05-07T05:50:26;21.30;69.00
26521;DHT22;14192;0.00000000;0.00000000;2023-05-07T05:52:53;21.30;69.00
26521;DHT22;14192;0.00000000;0.00000000;2023-05-07T05:55:20;21.30;69.00
26521;DHT22;14192;0.00000000;0.00000000;2023-05-07T05:57:49;21.30;69.10
26521;DHT22;14192;0.00000000;0.00000000;2023-05-07T06:00:16;21.30;69.10
26521;DHT22;14192;0.00000000;0.00000000;2023-05-07T06:02:43;21.30;69.10
26521;DHT22;14192;0.00000000;0.00000000;2023-05-07T06:05:10;21.30;69.10
26521;DHT22;14192;0.00000000;0.00000000;2023-05-07T06:07:37;21.30;69.10
26521;DHT22;14192;0.00000000;0.00000000;2023-05-07T06:10:04;21.30;69.10
26521;DHT22;14192;0.00000000;0.00000000;2023-05-07T06:12:31;21.30;69.10
26521;DHT22;14192;0.00000000;0.00000000;2023-05-07T06:14:59;21.30;69.10
26521;DHT22;14192;0.00000000;0.00000000;2023-05-07T06:17:26;21.30;69.10
26521;DHT22;14192;0.00000000;0.00000000;2023-05-07T06:19:53;21.30;69.10
26521;DHT22;14192;0.00000000;0.00000000;2023-05-07T06:22:20;21.30;69.10
26521;DHT22;14192;0.00000000;0.00000000;2023-05-07T06:24:47;21.40;69.00
26521;DHT22;14192;0.00000000;0.00000000;2023-05-07T06:27:14;21.40;69.00
26521;DHT22;14192;0.00000000;0.00000000;2023-05-07T06:29:41;21.30;68.90
26521;DHT22;14192;0.00000000;0.00000000;2023-05-07T06:32:09;21.30;69.00
26521;DHT22;14192;0.00000000;0.00000000;2023-05-07T06:34:37;21.40;69.00
26521;DHT22;14192;0.00000000;0.00000000;2023-05-07T06:37:04;21.40;69.00
26521;DHT22;14192;0.00000000;0.00000000;2023-05-07T06:39:31;21.40;68.90
26521;DHT22;14192;0.00000000;0.00000000;2023-05-07T06:42:00;21.40;68.90
26521;DHT22;14192;0.00000000;0.00000000;2023-05-07T06:44:27;21.40;68.80
26521;DHT22;14192;0.00000000;0.00000000;2023-05-07T06:46:54;21.50;68.90
26521;DHT22;14192;0.00000000;0.00000000;2023-05-07T06:49:22;21.40;68.80
26521;DHT22;14192;0.00000000;0.00000000;2023-05-07T06:51:49;21.40;68.70
26521;DHT22;14192;0.00000000;0.00000000;2023-05-07T06:54:16;21.50;68.70
26521;DHT22;14192;0.00000000;0.00000000;2023-05-07T06:56:43;21.50;68.60
26521;DHT22;14192;0.00000000;0.00000000;2023-05-07T06:59:10;21.50;68.50
26521;DHT22;14192;0.00000000;0.00000000;2023-05-07T07:01:37;21.50;68.50
26521;DHT22;14192;0.00000000;0.00000000;2023-05-07T07:04:04;20.50;67.80
26521;DHT22;14192;0.00000000;0.00000000;2023-05-07T07:06:32;21.50;68.30
26521;DHT22;14192;0.00000000;0.00000000;2023-05-07T07:08:59;21.60;68.40
26521;DHT22;14192;0.00000000;0.00000000;2023-05-07T07:11:26;21.60;68.40
26521;DHT22;14192;0.00000000;0.00000000;2023-05-07T07:13:53;21.60;68.40
26521;DHT22;14192;0.00000000;0.00000000;2023-05-07T07:16:20;21.60;68.40
26521;DHT22;14192;0.00000000;0.00000000;2023-05-07T07:18:47;21.60;68.80
26521;DHT22;14192;0.00000000;0.00000000;2023-05-07T07:21:14;21.50;68.00
26521;DHT22;14192;0.00000000;0.00000000;2023-05-07T07:23:42;23.40;69.20
26521;DHT22;14192;0.00000000;0.00000000;2023-05-07T07:26:09;21.10;68.60
26521;DHT22;14192;0.00000000;0.00000000;2023-05-07T07:28:43;21.10;69.10
26521;DHT22;14192;0.00000000;0.00000000;2023-05-07T07:31:14;21.10;70.60
26521;DHT22;14192;0.00000000;0.00000000;2023-05-07T07:33:42;21.00;72.50
26521;DHT22;14192;0.00000000;0.00000000;2023-05-07T07:36:09;21.10;71.90
26521;DHT22;14192;0.00000000;0.00000000;2023-05-07T07:38:36;21.10;71.80
26521;DHT22;14192;0.00000000;0.00000000;2023-05-07T07:41:04;21.20;71.40
26521;DHT22;14192;0.00000000;0.00000000;2023-05-07T07:43:31;21.30;71.10
26521;DHT22;14192;0.00000000;0.00000000;2023-05-07T07:45:58;21.40;70.90
26521;DHT22;14192;0.00000000;0.00000000;2023-05-07T07:48:25;21.40;70.60
26521;DHT22;14192;0.00000000;0.00000000;2023-05-07T07:50:52;21.50;70.00
26521;DHT22;14192;0.00000000;0.00000000;2023-05-07T07:53:19;21.50;69.60
26521;DHT22;14192;0.00000000;0.00000000;2023-05-07T07:55:46;21.50;69.80
26521;DHT22;14192;0.00000000;0.00000000;2023-05-07T07:58:14;21.60;69.80
26521;DHT22;14192;0.00000000;0.00000000;2023-05-07T08:00:41;21.70;69.30
26521;DHT22;14192;0.00000000;0.00000000;2023-05-07T08:03:09;21.70;68.30
26521;DHT22;14192;0.00000000;0.00000000;2023-05-07T08:05:36;21.70;67.70
26521;DHT22;14192;0.00000000;0.00000000;2023-05-07T08:08:04;21.70;67.50
26521;DHT22;14192;0.00000000;0.00000000;2023-05-07T08:10:31;21.70;67.60
26521;DHT22;14192;0.00000000;0.00000000;2023-05-07T08:13:00;21.80;67.20
26521;DHT22;14192;0.00000000;0.00000000;2023-05-07T08:15:28;21.80;68.00
26521;DHT22;14192;0.00000000;0.00000000;2023-05-07T08:17:55;21.90;68.10
26521;DHT22;14192;0.00000000;0.00000000;2023-05-07T08:20:23;21.90;67.90
26521;DHT22;14192;0.00000000;0.00000000;2023-05-07T08:22:51;22.00;68.60
26521;DHT22;14192;0.00000000;0.00000000;2023-05-07T08:25:17;22.10;67.90
26521;DHT22;14192;0.00000000;0.00000000;2023-05-07T08:27:45;22.10;68.10
26521;DHT22;14192;0.00000000;0.00000000;2023-05-07T08:30:13;22.20;67.70
26521;DHT22;14192;0.00000000;0.00000000;2023-05-07T08:32:41;22.20;67.40
26521;DHT22;14192;0.00000000;0.00000000;2023-05-07T08:35:08;22.20;68.30
26521;DHT22;14192;0.00000000;0.00000000;2023-05-07T08:37:35;22.30;68.00
26521;DHT22;14192;0.00000000;0.00000000;2023-05-07T08:40:03;22.30;68.00
26521;DHT22;14192;0.00000000;0.00000000;2023-05-07T08:42:31;22.40;68.00
26521;DHT22;14192;0.00000000;0.00000000;2023-05-07T08:44:59;22.50;68.50
26521;DHT22;14192;0.00000000;0.00000000;2023-05-07T08:47:31;22.50;69.30
26521;DHT22;14192;0.00000000;0.00000000;2023-05-07T08:50:02;22.50;68.60
26521;DHT22;14192;0.00000000;0.00000000;2023-05-07T08:52:29;22.60;68.20
26521;DHT22;14192;0.00000000;0.00000000;2023-05-07T08:54:56;22.70;68.50
26521;DHT22;14192;0.00000000;0.00000000;2023-05-07T08:57:23;22.70;69.30
26521;DHT22;14192;0.00000000;0.00000000;2023-05-07T08:59:50;22.80;69.20
26521;DHT22;14192;0.00000000;0.00000000;2023-05-07T09:02:17;22.80;68.90
26521;DHT22;14192;0.00000000;0.00000000;2023-05-07T09:04:44;22.90;68.80
26521;DHT22;14192;0.00000000;0.00000000;2023-05-07T09:07:12;23.00;70.70
26521;DHT22;14192;0.00000000;0.00000000;2023-05-07T09:09:39;23.10;72.90
26521;DHT22;14192;0.00000000;0.00000000;2023-05-07T09:12:06;23.10;73.30
26521;DHT22;14192;0.00000000;0.00000000;2023-05-07T09:14:33;23.30;76.20
26521;DHT22;14192;0.00000000;0.00000000;2023-05-07T09:17:00;23.40;76.00
26521;DHT22;14192;0.00000000;0.00000000;2023-05-07T09:19:27;23.40;75.00
26521;DHT22;14192;0.00000000;0.00000000;2023-05-07T09:22:00;23.50;75.00
26521;DHT22;14192;0.00000000;0.00000000;2023-05-07T09:24:29;23.60;74.80
26521;DHT22;14192;0.00000000;0.00000000;2023-05-07T09:27:00;23.60;74.60
26521;DHT22;14192;0.00000000;0.00000000;2023-05-07T09:29:28;23.70;74.40
26521;DHT22;14192;0.00000000;0.00000000;2023-05-07T09:31:55;23.80;74.10
26521;DHT22;14192;0.00000000;0.00000000;2023-05-07T09:34:22;23.80;73.80
26521;DHT22;14192;0.00000000;0.00000000;2023-05-07T09:36:49;23.90;73.50
26521;DHT22;14192;0.00000000;0.00000000;2023-05-07T09:39:16;24.00;73.70
26521;DHT22;14192;0.00000000;0.00000000;2023-05-07T09:41:45;24.00;73.90
26521;DHT22;14192;0.00000000;0.00000000;2023-05-07T09:44:12;24.10;73.80
26521;DHT22;14192;0.00000000;0.00000000;2023-05-07T09:46:42;24.10;72.90
26521;DHT22;14192;0.00000000;0.00000000;2023-05-07T09:49:12;24.20;72.40
26521;DHT22;14192;0.00000000;0.00000000;2023-05-07T09:51:45;24.20;72.30
26521;DHT22;14192;0.00000000;0.00000000;2023-05-07T09:54:14;24.20;72.20
26521;DHT22;14192;0.00000000;0.00000000;2023-05-07T09:56:42;24.10;72.00
26521;DHT22;14192;0.00000000;0.00000000;2023-05-07T09:59:13;24.30;72.00
26521;DHT22;14192;0.00000000;0.00000000;2023-05-07T10:01:41;24.30;71.80
26521;DHT22;14192;0.00000000;0.00000000;2023-05-07T10:04:09;24.40;71.70
26521;DHT22;14192;0.00000000;0.00000000;2023-05-07T10:06:37;24.40;71.40
26521;DHT22;14192;0.00000000;0.00000000;2023-05-07T10:09:04;24.50;71.50
26521;DHT22;14192;0.00000000;0.00000000;2023-05-07T10:11:32;24.50;71.40
26521;DHT22;14192;0.00000000;0.00000000;2023-05-07T10:14:00;24.60;71.30
26521;DHT22;14192;0.00000000;0.00000000;2023-05-07T10:16:31;24.60;70.80
26521;DHT22;14192;0.00000000;0.00000000;2023-05-07T10:19:02;24.70;70.40
26521;DHT22;14192;0.00000000;0.00000000;2023-05-07T10:21:29;24.80;70.40
26521;DHT22;14192;0.00000000;0.00000000;2023-05-07T10:23:59;24.80;70.30
26521;DHT22;14192;0.00000000;0.00000000;2023-05-07T10:26:29;24.90;70.40
26521;DHT22;14192;0.00000000;0.00000000;2023-05-07T10:28:59;24.90;70.10
26521;DHT22;14192;0.00000000;0.00000000;2023-05-07T10:31:48;25.00;69.90
26521;DHT22;14192;0.00000000;0.00000000;2023-05-07T10:34:20;25.00;69.70
26521;DHT22;14192;0.00000000;0.00000000;2023-05-07T10:36:48;25.10;69.70
26521;DHT22;14192;0.00000000;0.00000000;2023-05-07T10:39:17;25.10;69.60
26521;DHT22;14192;0.00000000;0.00000000;2023-05-07T10:41:44;25.10;69.50
26521;DHT22;14192;0.00000000;0.00000000;2023-05-07T10:44:11;25.10;69.50
26521;DHT22;14192;0.00000000;0.00000000;2023-05-07T10:46:38;25.20;69.50
26521;DHT22;14192;0.00000000;0.00000000;2023-05-07T10:49:12;25.20;69.60
26521;DHT22;14192;0.00000000;0.00000000;2023-05-07T10:51:40;25.30;69.50
26521;DHT22;14192;0.00000000;0.00000000;2023-05-07T10:54:23;25.30;69.40
26521;DHT22;14192;0.00000000;0.00000000;2023-05-07T10:56:52;25.30;69.40
26521;DHT22;14192;0.00000000;0.00000000;2023-05-07T10:59:35;25.30;69.60
26521;DHT22;14192;0.00000000;0.00000000;2023-05-07T11:02:07;25.30;69.60
26521;DHT22;14192;0.00000000;0.00000000;2023-05-07T11:04:38;25.40;69.70
26521;DHT22;14192;0.00000000;0.00000000;2023-05-07T11:07:28;25.40;69.70
26521;DHT22;14192;0.00000000;0.00000000;2023-05-07T11:10:05;25.40;69.70
26521;DHT22;14192;0.00000000;0.00000000;2023-05-07T11:12:52;25.40;69.60
26521;DHT22;14192;0.00000000;0.00000000;2023-05-07T11:15:43;25.40;69.60
26521;DHT22;14192;0.00000000;0.00000000;2023-05-07T11:18:11;25.50;69.70
26521;DHT22;14192;0.00000000;0.00000000;2023-05-07T11:21:01;25.40;69.70
26521;DHT22;14192;0.00000000;0.00000000;2023-05-07T11:23:56;25.40;69.80
26521;DHT22;14192;0.00000000;0.00000000;2023-05-07T11:26:28;25.50;70.00
26521;DHT22;14192;0.00000000;0.00000000;2023-05-07T11:28:55;25.40;69.90
26521;DHT22;14192;0.00000000;0.00000000;2023-05-07T11:31:24;25.40;70.00
26521;DHT22;14192;0.00000000;0.00000000;2023-05-07T11:33:52;25.40;70.10
26521;DHT22;14192;0.00000000;0.00000000;2023-05-07T11:36:23;25.40;70.10
26521;DHT22;14192;0.00000000;0.00000000;2023-05-07T11:38:50;25.40;70.10
26521;DHT22;14192;0.00000000;0.00000000;2023-05-07T11:41:17;25.40;70.20
26521;DHT22;14192;0.00000000;0.00000000;2023-05-07T11:43:59;25.40;70.20
26521;DHT22;14192;0.00000000;0.00000000;2023-05-07T11:46:27;25.40;70.20
26521;DHT22;14192;0.00000000;0.00000000;2023-05-07T11:48:55;25.40;70.30
26521;DHT22;14192;0.00000000;0.00000000;2023-05-07T11:51:24;25.40;70.40
26521;DHT22;14192;0.00000000;0.00000000;2023-05-07T11:53:53;25.40;70.40
26521;DHT22;14192;0.00000000;0.00000000;2023-05-07T11:56:20;25.40;70.50
26521;DHT22;14192;0.00000000;0.00000000;2023-05-07T11:58:48;25.40;70.50
26521;DHT22;14192;0.00000000;0.00000000;2023-05-07T12:01:15;25.40;70.50
26521;DHT22;14192;0.00000000;0.00000000;2023-05-07T12:03:45;25.40;70.50
26521;DHT22;14192;0.00000000;0.00000000;2023-05-07T12:06:14;25.40;70.60
26521;DHT22;14192;0.00000000;0.00000000;2023-05-07T12:08:43;25.40;70.60
26521;DHT22;14192;0.00000000;0.00000000;2023-05-07T12:11:14;25.40;70.70
26521;DHT22;14192;0.00000000;0.00000000;2023-05-07T12:13:42;25.40;70.70
26521;DHT22;14192;0.00000000;0.00000000;2023-05-07T12:16:09;25.40;70.70
26521;DHT22;14192;0.00000000;0.00000000;2023-05-07T12:18:36;25.40;70.70
26521;DHT22;14192;0.00000000;0.00000000;2023-05-07T12:21:05;25.40;70.80
26521;DHT22;14192;0.00000000;0.00000000;2023-05-07T12:23:33;25.40;71.00
26521;DHT22;14192;0.00000000;0.00000000;2023-05-07T12:26:02;25.40;71.00
26521;DHT22;14192;0.00000000;0.00000000;2023-05-07T12:28:29;25.40;70.80
26521;DHT22;14192;0.00000000;0.00000000;2023-05-07T12:30:57;25.40;71.00
26521;DHT22;14192;0.00000000;0.00000000;2023-05-07T12:33:25;25.50;70.80
26521;DHT22;14192;0.00000000;0.00000000;2023-05-07T12:35:54;25.50;70.70
26521;DHT22;14192;0.00000000;0.00000000;2023-05-07T12:38:22;25.50;70.70
26521;DHT22;14192;0.00000000;0.00000000;2023-05-07T12:40:50;25.50;70.70
26521;DHT22;14192;0.00000000;0.00000000;2023-05-07T12:43:20;25.50;70.60
26521;DHT22;14192;0.00000000;0.00000000;2023-05-07T12:45:49;25.50;70.70
26521;DHT22;14192;0.00000000;0.00000000;2023-05-07T12:48:16;25.50;70.70
26521;DHT22;14192;0.00000000;0.00000000;2023-05-07T12:50:43;25.50;70.70
26521;DHT22;14192;0.00000000;0.00000000;2023-05-07T12:53:11;25.50;70.70
26521;DHT22;14192;0.00000000;0.00000000;2023-05-07T12:55:42;25.50;70.70
26521;DHT22;14192;0.00000000;0.00000000;2023-05-07T12:58:19;25.50;70.70
26521;DHT22;14192;0.00000000;0.00000000;2023-05-07T13:00:48;25.50;70.70
26521;DHT22;14192;0.00000000;0.00000000;2023-05-07T13:03:22;25.50;70.70
26521;DHT22;14192;0.00000000;0.00000000;2023-05-07T13:05:50;25.60;70.80
26521;DHT22;14192;0.00000000;0.00000000;2023-05-07T13:08:28;25.50;70.70
26521;DHT22;14192;0.00000000;0.00000000;2023-05-07T13:10:56;25.60;70.70
26521;DHT22;14192;0.00000000;0.00000000;2023-05-07T13:13:24;25.50;70.70
26521;DHT22;14192;0.00000000;0.00000000;2023-05-07T13:15:51;25.60;70.70
26521;DHT22;14192;0.00000000;0.00000000;2023-05-07T13:18:18;25.60;70.60
26521;DHT22;14192;0.00000000;0.00000000;2023-05-07T13:20:45;25.60;70.50
26521;DHT22;14192;0.00000000;0.00000000;2023-05-07T13:23:11;25.60;70.40
26521;DHT22;14192;0.00000000;0.00000000;2023-05-07T13:25:38;25.70;70.50
26521;DHT22;14192;0.00000000;0.00000000;2023-05-07T13:28:05;25.70;70.40
26521;DHT22;14192;0.00000000;0.00000000;2023-05-07T13:30:33;25.70;70.40
26521;DHT22;14192;0.00000000;0.00000000;2023-05-07T13:33:01;25.70;70.50
26521;DHT22;14192;0.00000000;0.00000000;2023-05-07T13:35:28;25.70;70.40
26521;DHT22;14192;0.00000000;0.00000000;2023-05-07T13:37:55;25.70;70.40
26521;DHT22;14192;0.00000000;0.00000000;2023-05-07T13:40:22;25.70;70.40
26521;DHT22;14192;0.00000000;0.00000000;2023-05-07T13:42:49;25.70;70.50